Summerland Key, FL (33042)

3:56 AM EST on March 04, 2015 (GMT -0500)
Breezeswept Estates - Bird Lake - Ramrod | Change Station
CLOSE
Current Station
Personal Weather Station
Location: Ramrod Key, FL
Elevation: 25 ft
Nearby Weather Stations

Elev 25 ft 24.65 °N, 81.41 °W | Updated 4 seconds ago

Clear
Clear
75.9 °F
Feels Like 77 °F
N
14.1
Wind Variable Wind from ESE
Gusts 19.0 mph

Today
High -- | Low -- °F
--% Chance of Precip.
Yesterday
High -- | Low -- °F
Precip. -- in
6:45 AM 6:29 PM
Waxing Gibbous, 98% visible
Pressure 30.05 in
Visibility 10.0 miles
Clouds Clear
Heat Index 77 °F
Dew Point 70 °F
Humidity 81%
Rainfall 0.00 in
Snow Depth Not available.
UV 0 out of 12
Pollen 10.20 out of 12
Air Quality Not available.
Flu Activity Not available.
METAR KNQX 040853Z AUTO 12012KT 10SM CLR 23/20 A3006 RMK AO2 SLP176 T02330200 56013 $

More Conditions Fewer Conditions

Pressure 30.05 in
Visibility 10.0 miles
Clouds Clear
Heat Index 77 °F
Dew Point 70 °F
Humidity 81%
Rainfall 0.00 in
Snow Depth Not available.
UV 0 out of 12
Pollen 10.20 out of 12
Air Quality Not available.
Flu Activity Not available.
METAR KNQX 040853Z AUTO 12012KT 10SM CLR 23/20 A3006 RMK AO2 SLP176 T02330200 56013 $

More Conditions Fewer Conditions

10-Day Weather Forecast

Almanac

Astronomy

Mar. 04, 2015 Rise Set
Actual Time
Civil Twilight
Nautical Twilight
Astronomical Twilight
Moon
Length of Visible Light
Length of Day
Tomorrow will be .
, % of the Moon is Illuminated

Today's Extremes

State Highs State Lows

Community

WunderPhotos

Upload Photos

1,802,416 photos uploaded!

WunderBlogs® & News

Nearby

Air Quality

  Air Quality AQ Index Pollutant
Not available.

Snow Depth

Station Depth Elevation

Earthquake Activity

City Distance Mag. Time & Date
Minimum magnitude displayed is 2.5.

Coastal Water Temperatures

Place Temperature

Nearby Weather Stations